Terminal Aerodrome Forecast
Issued by NWS

Home | Current Version | Previous Version | Text Only | Print | Product List | Glossary On
Versions: 1 2 3 4 5 6 7 8 9 10 11 12 13 14
000
FTUS43 KAPX 041726
TAFPLN
TAF
KPLN 041726Z 0418/0518 32007KT P6SM SCT050
     FM050100 VRB03KT P6SM SCT250
     FM050700 00000KT 2SM BR FEW002
     FM051300 21006KT P6SM FEW015=

USA.gov is the U.S. government's official web portal to all federal, state and local government web resources and services.